DW8501 Madrid ES current weather conditions

sailwx.info

Wind from 096 at 6 knots gusting 12

Air temperature 13.9° C
Dewpoint -8.7° C

Last reported at 2015-Mar-05 17:50 UTC.
Time now 2015-Mar-05 18:45 UTC

Location: N 40°27' W 003°35'.
View on Google Maps.

See reports from other nearby stations

  
Tides and Currents Weather Stations Pressure Air Temp Water Temp Dewpoint Dewpoint Depression Visibility Wind Speed Wind Dir Waves Ship Positions
date/time (UTC)wind fromknots sea level pressurealtimeterstation pressurevisibilityair tempwater tempwave heightnotes
2015-Mar-05 17:50 096 6 gusting 12 13.9
2015-Mar-05 17:45 090 6 gusting 12 13.9
2015-Mar-05 17:40 087 6 gusting 12 13.9
2015-Mar-05 17:35 090 9 gusting 13 14.4
2015-Mar-05 17:30 091 9 gusting 14 14.4
2015-Mar-05 17:25 103 8 gusting 14 14.4
2015-Mar-05 17:20 110 6 gusting 14 14.4
2015-Mar-05 17:15 091 7 gusting 14 14.4
2015-Mar-05 17:10 076 6 gusting 14 14.4
2015-Mar-05 17:05 088 11 gusting 17 14.4
2015-Mar-05 17:00 087 12 gusting 17 14.4
2015-Mar-05 16:55 085 11 gusting 16 14.4
2015-Mar-05 16:50 093 7 gusting 20 14.4
2015-Mar-05 16:45 089 10 gusting 20 13.9
2015-Mar-05 16:40 097 18 gusting 20 13.9
2015-Mar-05 16:35 098 14 gusting 18 13.9
2015-Mar-05 16:30 086 11 gusting 18 14.4
2015-Mar-05 16:25 079 12 gusting 18 14.4
2015-Mar-05 16:20 087 11 gusting 20 15.0
2015-Mar-05 16:15 097 9 gusting 20 14.4
2015-Mar-05 16:10 104 17 gusting 25 15.0
2015-Mar-05 16:05 117 12 gusting 25 15.0
2015-Mar-05 16:00 045 19 gusting 25 10.6
2015-Mar-05 15:55 045 19 gusting 25 10.6
2015-Mar-05 15:50 045 19 gusting 25 10.6
2015-Mar-05 15:45 045 19 gusting 25 10.6
2015-Mar-05 15:40 045 19 gusting 25 10.6
2015-Mar-05 15:35 045 19 gusting 25 10.6
2015-Mar-05 15:30 045 19 gusting 25 10.6
2015-Mar-05 15:25 045 19 gusting 25 10.6
2015-Mar-05 15:20 045 19 gusting 25 10.6
2015-Mar-05 15:15 045 19 gusting 25 10.6
2015-Mar-05 15:10 045 19 gusting 25 10.6
2015-Mar-05 15:05 045 19 gusting 25 10.6
2015-Mar-05 15:00 045 19 gusting 25 10.6
2015-Mar-05 14:55 045 19 gusting 25 10.6
2015-Mar-05 14:50 045 19 gusting 25 10.6
2015-Mar-05 14:45 045 19 gusting 25 10.6
2015-Mar-05 14:40 045 19 gusting 25 10.6
2015-Mar-05 14:35 045 19 gusting 25 10.6
2015-Mar-05 14:30 045 19 gusting 25 10.6
2015-Mar-05 14:25 045 19 gusting 25 10.6
2015-Mar-05 14:20 045 19 gusting 25 10.6
2015-Mar-05 14:15 045 19 gusting 25 10.6
2015-Mar-05 14:10 045 19 gusting 25 10.6
2015-Mar-05 14:05 045 19 gusting 25 10.6
2015-Mar-05 14:00 045 19 gusting 25 10.6
2015-Mar-05 13:55 045 19 gusting 25 10.6
2015-Mar-05 13:50 045 19 gusting 25 10.6
2015-Mar-05 13:45 045 19 gusting 25 10.6
2015-Mar-05 13:40 045 19 gusting 25 10.6
2015-Mar-05 13:35 045 19 gusting 25 10.6
2015-Mar-05 13:30 045 19 gusting 25 10.6
2015-Mar-05 13:25 045 19 gusting 25 10.6
2015-Mar-05 13:20 045 19 gusting 25 10.6
2015-Mar-05 13:15 045 19 gusting 25 10.6
2015-Mar-05 13:10 045 19 gusting 25 10.6
2015-Mar-05 13:05 045 19 gusting 25 10.6
2015-Mar-05 13:00 045 19 gusting 25 10.6
2015-Mar-05 12:55 045 19 gusting 25 10.6
2015-Mar-05 12:50 045 19 gusting 25 10.6
2015-Mar-05 12:45 045 19 gusting 25 10.6
2015-Mar-05 12:40 045 19 gusting 25 10.6
2015-Mar-05 12:35 045 19 gusting 25 10.6
2015-Mar-05 12:30 045 19 gusting 25 10.6
2015-Mar-05 12:25 045 19 gusting 25 10.6
2015-Mar-05 12:20 045 19 gusting 25 10.6
2015-Mar-05 12:15 045 19 gusting 25 10.6
2015-Mar-05 12:10 045 19 gusting 25 10.6
2015-Mar-05 12:05 050 19 gusting 31 10.6
2015-Mar-05 12:00 055 19 gusting 31 10.6
2015-Mar-05 11:55 067 16 gusting 29 10.6
2015-Mar-05 11:50 084 17 gusting 22 10.0
2015-Mar-05 11:45 079 8 gusting 18 10.0
2015-Mar-05 11:40 075 13 gusting 18 10.0
2015-Mar-05 11:35 071 9 gusting 18 9.4
2015-Mar-05 11:30 067 13 gusting 18 9.4
2015-Mar-05 11:25 063 14 gusting 18 8.3
2015-Mar-05 11:20 051 8 gusting 13 8.3
2015-Mar-05 11:15 073 8 gusting 13 8.9
2015-Mar-05 11:10 093 3 gusting 13 8.3
2015-Mar-05 11:05 081 9 gusting 13 7.8
2015-Mar-05 11:00 082 9 gusting 13 7.8
2015-Mar-05 10:55 090 6 gusting 13 8.3
2015-Mar-05 10:50 070 6 gusting 14 8.3
2015-Mar-05 10:45 063 6 gusting 17 7.8
2015-Mar-05 10:40 068 10 gusting 17 7.8
2015-Mar-05 10:35 071 6 gusting 10 7.8
2015-Mar-05 10:30 058 6 gusting 16 7.2
2015-Mar-05 10:25 044 8 gusting 16 7.2
2015-Mar-05 10:20 042 9 gusting 14 7.2
2015-Mar-05 10:15 046 6 gusting 13 6.7
2015-Mar-05 10:10 056 5 gusting 13 6.7
2015-Mar-05 10:05 055 6 gusting 12 6.7
2015-Mar-05 10:00 048 5 gusting 12 6.1
2015-Mar-05 09:55 049 9 gusting 12 6.1
2015-Mar-05 09:50 043 6 gusting 11 5.6
2015-Mar-05 09:45 041 6 gusting 11 5.6
2015-Mar-05 09:40 053 6 gusting 10 5.6
2015-Mar-05 09:35 064 6 gusting 9 5.6
2015-Mar-05 09:30 075 6 gusting 9 5.6
2015-Mar-05 09:25 061 6 gusting 9 5.6
2015-Mar-05 09:20 059 4 gusting 8 5.0
2015-Mar-05 09:15 102 3 gusting 8 5.0
2015-Mar-05 09:10 161 6 gusting 7 5.0
2015-Mar-05 09:05 153 4 gusting 7 5.0
2015-Mar-05 09:00 109 4 gusting 7 5.0
2015-Mar-05 08:55 077 5 gusting 6 5.6
2015-Mar-05 08:50 049 1 gusting 6 5.0
2015-Mar-05 08:45 053 1 gusting 9 4.4
2015-Mar-05 08:40 049 4 gusting 9 3.9
2015-Mar-05 08:35 043 5 gusting 12 3.3
2015-Mar-05 08:30 048 7 gusting 13 3.3
2015-Mar-05 08:25 044 6 gusting 13 3.3
2015-Mar-05 08:20 042 7 gusting 11 3.3
2015-Mar-05 08:15 057 6 gusting 9 2.8
2015-Mar-05 08:10 055 6 gusting 8 3.3
2015-Mar-05 08:05 039 3 gusting 8 3.3
2015-Mar-05 08:00 043 4 gusting 6 3.9
2015-Mar-05 07:55 072 1 gusting 4 3.9
2015-Mar-05 07:50 093 2 gusting 4 4.4
2015-Mar-05 07:45 099 2 gusting 4 3.9
2015-Mar-05 07:40 080 2 gusting 4 3.3
2015-Mar-05 07:35 063 1 gusting 5 2.8
2015-Mar-05 07:30 065 2 gusting 5 2.8
2015-Mar-05 07:25 079 1 gusting 5 2.2
2015-Mar-05 07:20 073 2 gusting 5 2.2
2015-Mar-05 07:15 068 2 gusting 5 2.2
2015-Mar-05 07:10 098 3 gusting 4 2.8
2015-Mar-05 07:05 140 0 gusting 1 1.7
2015-Mar-05 07:00 160 0 gusting 1 1.7
2015-Mar-05 06:55 181 0 gusting 1 1.1
2015-Mar-05 06:50 187 1 gusting 2 0.6
2015-Mar-05 06:45 103 1 gusting 2 0.6
2015-Mar-05 06:40 080 0 gusting 2 0.6
2015-Mar-05 06:35 090 1 gusting 2 0.6
2015-Mar-05 06:00 045 22 gusting 28 12.2
2015-Mar-05 05:55 045 22 gusting 28 12.2
2015-Mar-05 05:50 045 22 gusting 28 12.2
2015-Mar-05 05:45 045 22 gusting 28 12.2
2015-Mar-05 05:40 045 22 gusting 28 12.2
2015-Mar-05 05:35 045 22 gusting 28 12.2
2015-Mar-05 05:30 045 22 gusting 28 12.2
2015-Mar-05 05:25 045 22 gusting 28 12.2
2015-Mar-05 05:20 045 22 gusting 28 12.2
2015-Mar-05 05:15 045 22 gusting 28 12.2
2015-Mar-05 05:10 045 22 gusting 28 12.2
2015-Mar-05 05:05 045 22 gusting 28 12.2
2015-Mar-05 05:00 045 22 gusting 28 12.2
2015-Mar-05 04:55 045 22 gusting 28 12.2
2015-Mar-05 04:50 045 22 gusting 28 12.2
2015-Mar-05 04:45 045 22 gusting 28 12.2
2015-Mar-05 04:40 045 22 gusting 28 12.2
2015-Mar-05 04:35 045 22 gusting 28 12.2
2015-Mar-05 04:30 045 22 gusting 28 12.2
2015-Mar-05 04:25 045 22 gusting 28 12.2
2015-Mar-05 04:20 045 22 gusting 28 12.2
2015-Mar-05 04:15 045 22 gusting 28 12.2
2015-Mar-05 04:10 045 22 gusting 28 12.2
2015-Mar-05 04:05 045 22 gusting 28 12.2
2015-Mar-05 04:00 045 22 gusting 28 12.2
2015-Mar-05 03:55 045 22 gusting 28 12.2
2015-Mar-05 03:50 045 22 gusting 28 12.2
2015-Mar-05 03:45 045 22 gusting 28 12.2
2015-Mar-05 03:40 045 22 gusting 28 12.2
2015-Mar-05 03:35 045 22 gusting 28 12.2
2015-Mar-05 03:30 045 22 gusting 28 12.2
2015-Mar-05 03:25 045 22 gusting 28 12.2
2015-Mar-05 03:20 045 22 gusting 28 12.2
2015-Mar-05 03:15 045 22 gusting 28 12.2
2015-Mar-05 03:10 045 22 gusting 28 12.2
2015-Mar-05 03:05 045 22 gusting 28 12.2
2015-Mar-05 03:00 045 22 gusting 28 12.2
2015-Mar-05 02:55 045 22 gusting 28 12.2
2015-Mar-05 02:50 045 22 gusting 28 12.2
2015-Mar-05 02:45 045 22 gusting 28 12.2
2015-Mar-05 02:40 045 22 gusting 28 12.2
2015-Mar-05 02:35 045 22 gusting 28 12.2
2015-Mar-05 02:30 045 22 gusting 28 12.2
2015-Mar-05 02:25 045 22 gusting 28 12.2
2015-Mar-05 02:20 045 22 gusting 28 12.2
2015-Mar-05 02:15 045 22 gusting 28 12.2
2015-Mar-05 02:10 045 22 gusting 28 12.2
2015-Mar-05 02:05 045 22 gusting 28 12.2
2015-Mar-05 02:00 045 22 gusting 28 12.2
2015-Mar-05 01:55 045 22 gusting 28 12.2
2015-Mar-05 01:50 045 22 gusting 28 12.2
2015-Mar-05 01:45 045 22 gusting 28 12.2
2015-Mar-05 01:40 045 22 gusting 28 12.2
2015-Mar-05 01:35 045 22 gusting 28 12.2
2015-Mar-05 01:30 045 22 gusting 28 12.2
2015-Mar-05 01:25 045 22 gusting 28 12.2
2015-Mar-05 01:20 045 22 gusting 28 12.2
2015-Mar-05 01:15 045 22 gusting 28 12.2
2015-Mar-05 01:10 045 22 gusting 28 12.2
2015-Mar-05 01:05 045 22 gusting 28 12.2
2015-Mar-05 01:00 045 22 gusting 28 12.2
2015-Mar-05 00:55 045 22 gusting 28 12.2
2015-Mar-05 00:50 045 22 gusting 28 12.2
2015-Mar-05 00:45 045 22 gusting 28 12.2
2015-Mar-05 00:40 045 22 gusting 28 12.2
2015-Mar-05 00:35 045 22 gusting 28 12.2
2015-Mar-05 00:30 045 22 gusting 28 12.2
2015-Mar-05 00:25 045 22 gusting 28 12.2
2015-Mar-05 00:20 045 22 gusting 28 12.2
2015-Mar-05 00:15 045 22 gusting 28 12.2
2015-Mar-05 00:10 045 22 gusting 28 12.2
2015-Mar-05 00:05 045 22 gusting 28 12.2
2015-Mar-05 00:00 045 22 gusting 28 12.2
2015-Mar-04 23:55 045 22 gusting 28 12.2
2015-Mar-04 23:50 045 22 gusting 28 12.2
2015-Mar-04 23:45 045 22 gusting 28 12.2
2015-Mar-04 23:40 045 22 gusting 28 12.2
2015-Mar-04 23:35 045 22 gusting 28 12.2
2015-Mar-04 23:30 045 22 gusting 28 12.2
2015-Mar-04 23:25 045 22 gusting 28 12.2
2015-Mar-04 23:20 045 22 gusting 28 12.2
2015-Mar-04 23:15 045 22 gusting 28 12.2
2015-Mar-04 23:10 045 22 gusting 28 12.2
2015-Mar-04 23:05 045 22 gusting 28 12.2
2015-Mar-04 23:00 045 22 gusting 28 12.2
2015-Mar-04 22:55 045 22 gusting 28 12.2
2015-Mar-04 22:50 045 22 gusting 28 12.2
2015-Mar-04 22:45 045 22 gusting 28 12.2
2015-Mar-04 22:40 045 22 gusting 28 12.2
2015-Mar-04 22:35 045 22 gusting 28 12.2
2015-Mar-04 22:30 045 22 gusting 28 12.2
2015-Mar-04 22:25 045 22 gusting 28 12.2
2015-Mar-04 22:20 045 22 gusting 28 12.2
2015-Mar-04 22:15 045 22 gusting 28 12.2
2015-Mar-04 22:10 045 22 gusting 28 12.2
2015-Mar-04 22:05 045 22 gusting 28 12.2
2015-Mar-04 22:00 045 22 gusting 28 12.2
2015-Mar-04 21:55 045 22 gusting 28 12.2
2015-Mar-04 21:50 045 22 gusting 28 12.2
2015-Mar-04 21:45 045 22 gusting 28 12.2
2015-Mar-04 21:40 045 22 gusting 28 12.2
2015-Mar-04 21:35 045 22 gusting 28 12.2
2015-Mar-04 21:30 045 22 gusting 28 12.2
2015-Mar-04 21:25 045 22 gusting 28 12.2
2015-Mar-04 21:20 045 22 gusting 28 12.2
2015-Mar-04 21:15 045 22 gusting 28 12.2
2015-Mar-04 21:10 045 22 gusting 28 12.2
2015-Mar-04 21:05 045 22 gusting 28 12.2
2015-Mar-04 21:00 045 22 gusting 28 12.2
2015-Mar-04 20:55 045 22 gusting 28 12.2
2015-Mar-04 20:50 045 22 gusting 28 12.2
2015-Mar-04 20:45 045 22 gusting 28 12.2
2015-Mar-04 20:40 045 22 gusting 28 12.2
2015-Mar-04 20:35 045 22 gusting 28 12.2
2015-Mar-04 20:30 045 22 gusting 28 12.2
2015-Mar-04 20:25 045 22 gusting 28 12.2
2015-Mar-04 20:20 045 22 gusting 28 12.2
2015-Mar-04 20:15 045 22 gusting 28 12.2
2015-Mar-04 20:10 045 22 gusting 28 12.2
2015-Mar-04 20:05 045 22 gusting 28 12.2
2015-Mar-04 20:00 045 22 gusting 28 12.2
2015-Mar-04 19:55 045 22 gusting 28 12.2
2015-Mar-04 19:50 045 22 gusting 28 12.2
2015-Mar-04 19:45 045 22 gusting 28 12.2
2015-Mar-04 19:40 045 22 gusting 28 12.2
2015-Mar-04 19:35 045 22 gusting 28 12.2
2015-Mar-04 19:30 045 22 gusting 28 12.2
2015-Mar-04 19:25 045 22 gusting 28 12.2
2015-Mar-04 19:20 045 22 gusting 28 12.2
2015-Mar-04 19:15 045 22 gusting 28 12.2
2015-Mar-04 19:10 045 22 gusting 28 12.2
2015-Mar-04 19:05 045 22 gusting 28 12.2
2015-Mar-04 19:00 045 22 gusting 28 12.2
2015-Mar-04 18:55 045 22 gusting 28 12.2
2015-Mar-04 18:50 045 22 gusting 28 12.2
2015-Mar-04 18:45 045 22 gusting 28 12.2
2015-Mar-04 18:40 045 22 gusting 28 12.2
2015-Mar-04 18:35 045 22 gusting 28 12.2
2015-Mar-04 18:30 045 22 gusting 28 12.2
2015-Mar-04 18:25 045 22 gusting 28 12.2
2015-Mar-04 18:20 045 22 gusting 28 12.2
2015-Mar-04 18:15 045 22 gusting 28 12.2
2015-Mar-04 18:10 045 22 gusting 28 12.2
2015-Mar-04 18:05 045 22 gusting 28 12.2
2015-Mar-04 18:00 045 22 gusting 28 12.2
2015-Mar-04 17:55 045 22 gusting 28 12.2
2015-Mar-04 17:50 045 22 gusting 28 12.2
2015-Mar-04 17:45 045 22 gusting 28 12.2
2015-Mar-04 17:40 045 22 gusting 28 12.2
2015-Mar-04 17:35 045 22 gusting 28 12.2
2015-Mar-04 17:30 045 22 gusting 28 12.2
2015-Mar-04 17:25 045 22 gusting 28 12.2
2015-Mar-04 17:20 045 22 gusting 28 12.2
2015-Mar-04 17:15 045 22 gusting 28 12.2
2015-Mar-04 17:10 045 22 gusting 28 12.2
2015-Mar-04 17:05 045 22 gusting 28 12.2
2015-Mar-04 17:00 045 22 gusting 28 12.2
2015-Mar-04 16:55 045 22 gusting 28 12.2
2015-Mar-04 16:50 045 22 gusting 28 12.2
2015-Mar-04 16:45 045 22 gusting 28 12.2
2015-Mar-04 16:40 045 22 gusting 28 12.2
2015-Mar-04 16:35 045 22 gusting 28 12.2
2015-Mar-04 16:30 045 22 gusting 28 12.2
2015-Mar-04 16:25 045 22 gusting 28 12.2
2015-Mar-04 16:20 045 22 gusting 28 12.2
2015-Mar-04 16:15 045 22 gusting 28 12.2
2015-Mar-04 16:10 045 22 gusting 28 12.2
2015-Mar-04 16:05 045 22 gusting 28 12.2
2015-Mar-04 16:00 045 22 gusting 28 12.2
2015-Mar-04 15:55 045 22 gusting 28 12.2
2015-Mar-04 15:50 045 22 gusting 28 12.2
2015-Mar-04 15:45 045 22 gusting 28 12.2
2015-Mar-04 15:40 045 22 gusting 28 12.2
2015-Mar-04 15:35 045 22 gusting 28 12.2
2015-Mar-04 15:30 045 22 gusting 28 12.2
2015-Mar-04 15:25 045 22 gusting 28 12.2
2015-Mar-04 15:20 045 22 gusting 28 12.2
2015-Mar-04 15:15 045 22 gusting 28 12.2
2015-Mar-04 15:10 045 22 gusting 28 12.2
2015-Mar-04 15:05 045 22 gusting 28 12.2
2015-Mar-04 15:00 045 22 gusting 28 12.2
2015-Mar-04 14:55 045 22 gusting 28 12.2
2015-Mar-04 14:50 045 22 gusting 28 12.2
2015-Mar-04 14:45 045 22 gusting 28 12.2
2015-Mar-04 14:40 045 22 gusting 28 12.2
2015-Mar-04 14:35 045 22 gusting 28 12.2
2015-Mar-04 14:30 045 22 gusting 28 12.2
2015-Mar-04 14:25 045 22 gusting 28 12.2
2015-Mar-04 14:20 045 22 gusting 28 12.2
2015-Mar-04 14:15 045 22 gusting 28 12.2
2015-Mar-04 14:10 045 22 gusting 28 12.2
2015-Mar-04 14:05 045 22 gusting 28 12.2
2015-Mar-04 14:00 045 22 gusting 28 12.2
2015-Mar-04 13:55 045 22 gusting 28 12.2
2015-Mar-04 13:50 045 22 gusting 28 12.2
2015-Mar-04 13:45 045 22 gusting 28 12.2
2015-Mar-04 13:40 045 22 gusting 28 12.2
2015-Mar-04 13:35 045 22 gusting 28 12.2
2015-Mar-04 13:30 045 22 gusting 28 12.2
2015-Mar-04 13:25 045 22 gusting 28 12.2
2015-Mar-04 13:20 045 22 gusting 28 12.2
2015-Mar-04 13:15 045 22 gusting 28 12.2
2015-Mar-04 13:10 045 22 gusting 28 12.2
2015-Mar-04 13:05 045 22 gusting 28 12.2
2015-Mar-04 13:00 045 22 gusting 28 12.2
2015-Mar-04 12:55 045 22 gusting 28 12.2
2015-Mar-04 12:50 045 22 gusting 28 12.2
2015-Mar-04 12:45 045 22 gusting 28 12.2
2015-Mar-04 12:40 045 22 gusting 28 12.2
2015-Mar-04 12:35 045 22 gusting 28 12.2
2015-Mar-04 12:30 045 22 gusting 28 12.2
2015-Mar-04 12:25 045 22 gusting 28 12.2
2015-Mar-04 12:20 045 22 gusting 28 12.2
2015-Mar-04 12:15 045 22 gusting 28 12.2
2015-Mar-04 12:10 045 22 gusting 28 12.2
2015-Mar-04 12:05 045 22 gusting 28 12.2
2015-Mar-04 12:00 045 22 gusting 28 12.2
2015-Mar-04 11:55 045 22 gusting 28 12.2
2015-Mar-04 11:50 045 22 gusting 28 12.2
2015-Mar-04 11:45 045 22 gusting 28 12.2
2015-Mar-04 11:40 045 22 gusting 28 12.2
2015-Mar-04 11:35 045 22 gusting 28 12.2
2015-Mar-04 11:30 045 22 gusting 28 12.2
2015-Mar-04 11:25 045 22 gusting 28 12.2
2015-Mar-04 11:20 050 22 gusting 32 12.2
2015-Mar-04 11:15 063 22 gusting 32 12.2
2015-Mar-04 11:10 072 19 gusting 26 12.8
2015-Mar-04 11:05 071 16 gusting 27 12.8
2015-Mar-04 11:00 054 18 gusting 27 12.8
2015-Mar-04 10:55 044 14 gusting 25 12.8
2015-Mar-04 10:50 062 8 gusting 25 12.8
2015-Mar-04 10:45 069 11 gusting 26 13.3
2015-Mar-04 10:40 052 15 gusting 26 12.8
2015-Mar-04 10:35 049 20 gusting 26 12.8
2015-Mar-04 10:30 049 19 gusting 25 12.8
2015-Mar-04 10:25 036 17 gusting 25 12.8
2015-Mar-04 10:20 038 11 gusting 25 12.8
2015-Mar-04 10:15 041 15 gusting 21 12.8
2015-Mar-04 10:10 040 16 gusting 21 12.2
2015-Mar-04 10:05 042 14 gusting 20 12.2
2015-Mar-04 10:00 039 16 gusting 19 12.2
2015-Mar-04 09:55 039 15 gusting 19 12.8
2015-Mar-04 09:50 050 14 gusting 19 12.8
2015-Mar-04 09:45 049 14 gusting 19 12.2
2015-Mar-04 09:40 045 11 gusting 19 12.2
2015-Mar-04 09:35 049 9 gusting 18 12.2
2015-Mar-04 09:30 048 15 gusting 18 12.2
2015-Mar-04 09:25 047 13 gusting 18 12.2
2015-Mar-04 09:20 048 13 gusting 18 11.7
2015-Mar-04 09:15 050 9 gusting 14 11.7
2015-Mar-04 09:10 052 10 gusting 14 11.7
2015-Mar-04 09:05 052 6 gusting 13 11.7
2015-Mar-04 09:00 044 9 gusting 16 11.7
2015-Mar-04 08:55 040 10 gusting 16 11.7
2015-Mar-04 08:50 058 4 gusting 9 11.7
2015-Mar-04 08:45 051 3 gusting 9 11.7
2015-Mar-04 08:40 002 3 gusting 4 11.7
2015-Mar-04 08:35 001 1 gusting 5 11.1
2015-Mar-04 08:30 349 3 gusting 5 11.1
2015-Mar-04 08:25 006 2 gusting 5 10.6
2015-Mar-04 08:20 10.6
2015-Mar-04 08:15 071 2 gusting 6 10.0
2015-Mar-04 08:10 071 5 gusting 6 10.0
2015-Mar-04 08:05 034 4 gusting 6 10.0
2015-Mar-04 08:00 355 1 gusting 5 9.4
2015-Mar-04 07:55 352 3 gusting 5 8.9
2015-Mar-04 07:50 013 3 gusting 5 8.3
2015-Mar-04 07:45 022 2 gusting 3 7.8
2015-Mar-04 07:40 054 1 gusting 3 7.2
2015-Mar-04 07:35 7.2
2015-Mar-04 07:30 6.7
2015-Mar-04 07:25 6.7
2015-Mar-04 07:20 064 0 gusting 3 6.1
2015-Mar-04 07:15 065 1 gusting 2 5.6
2015-Mar-04 07:10 074 1 gusting 2 5.6
2015-Mar-04 07:05 5.0
2015-Mar-04 07:00 5.0
2015-Mar-04 06:55 045 0 gusting 2 5.0
2015-Mar-04 06:50 5.0
2015-Mar-04 06:45 5.0
2015-Mar-04 06:40 068 2 gusting 4 5.0
2015-Mar-04 06:35 086 1 gusting 5 5.0
2015-Mar-04 06:30 098 2 gusting 6 5.6
2015-Mar-04 06:25 097 4 gusting 6 5.6
2015-Mar-04 06:20 122 1 gusting 3 5.6
2015-Mar-04 06:15 161 0 gusting 3 5.6
2015-Mar-04 06:10 220 1 gusting 2 5.6
2015-Mar-04 06:05 241 1 gusting 2 5.6
2015-Mar-04 06:00 260 1 gusting 2 5.6
2015-Mar-04 05:55 267 0 gusting 2 5.6
2015-Mar-04 05:50 189 0 gusting 1 5.6
2015-Mar-04 05:45 212 0 gusting 1 5.6
2015-Mar-04 05:40 226 1 gusting 1 5.6
2015-Mar-04 05:35 102 0 gusting 2 5.6
2015-Mar-04 05:30 5.6
2015-Mar-04 05:25 234 0 gusting 2 5.6
2015-Mar-04 05:20 262 1 gusting 1 5.6
2015-Mar-04 05:15 253 0 gusting 1 5.6
2015-Mar-04 05:10 5.6
2015-Mar-04 05:05 263 1 gusting 1 5.6
2015-Mar-04 05:00 5.6
2015-Mar-04 04:55 6.1
2015-Mar-04 04:50 6.1
2015-Mar-04 04:45 6.1
2015-Mar-04 04:40 6.1
2015-Mar-04 04:35 179 0 gusting 2 6.7
2015-Mar-04 04:30 178 1 gusting 3 6.7
2015-Mar-04 04:25 186 1 gusting 3 6.7
2015-Mar-04 04:20 185 1 gusting 3 6.7
2015-Mar-04 04:15 181 3 gusting 3 6.7
2015-Mar-04 04:10 199 1 gusting 2 6.7
2015-Mar-04 04:05 221 1 gusting 2 6.7
2015-Mar-04 04:00 235 0 gusting 2 6.7
2015-Mar-04 03:55 224 1 gusting 1 6.7
2015-Mar-04 03:50 7.2
2015-Mar-04 03:45 182 1 gusting 3 7.2
2015-Mar-04 03:40 196 1 gusting 3 6.7
2015-Mar-04 03:35 219 0 gusting 3 6.7
2015-Mar-04 03:30 224 2 gusting 3 6.7
2015-Mar-04 03:25 222 1 gusting 2 6.7
2015-Mar-04 03:20 234 0 gusting 2 7.2
2015-Mar-04 03:15 266 1 gusting 2 7.2
2015-Mar-04 03:10 298 0 gusting 2 7.2
2015-Mar-04 03:05 7.2
2015-Mar-04 03:00 257 0 gusting 2 7.2
2015-Mar-04 02:55 270 1 gusting 2 7.2
2015-Mar-04 02:50 258 1 gusting 1 7.2
2015-Mar-04 02:45 244 1 gusting 1 7.2
2015-Mar-04 02:40 199 1 gusting 1 7.2
2015-Mar-04 02:35 163 0 gusting 1 7.2
2015-Mar-04 02:30 222 0 gusting 2 7.2
2015-Mar-04 02:25 253 0 gusting 2 7.2
2015-Mar-04 02:20 247 1 gusting 2 7.2
2015-Mar-04 02:15 224 0 gusting 1 7.2
2015-Mar-04 02:10 218 1 gusting 2 7.2
2015-Mar-04 02:05 229 1 gusting 2 7.8
2015-Mar-04 02:00 235 1 gusting 2 7.8
2015-Mar-04 01:55 202 1 gusting 2 7.8
2015-Mar-04 01:50 186 0 gusting 3 7.8
2015-Mar-04 01:45 202 1 gusting 3 7.8
2015-Mar-04 01:40 209 0 gusting 2 7.8
2015-Mar-04 01:35 194 1 gusting 2 8.3
2015-Mar-04 01:30 187 1 gusting 3 8.3
2015-Mar-04 01:25 184 1 gusting 3 8.3
2015-Mar-04 01:20 177 2 gusting 3 8.3
2015-Mar-04 01:15 190 1 gusting 3 8.3
2015-Mar-04 01:10 203 0 gusting 2 8.3
2015-Mar-04 01:05 186 0 gusting 2 8.3
2015-Mar-04 01:00 182 1 gusting 2 8.3
2015-Mar-04 00:55 200 1 gusting 2 8.3
2015-Mar-04 00:50 212 1 gusting 2 8.3
2015-Mar-04 00:35 261 0 gusting 2 8.9
2015-Mar-04 00:30 274 1 gusting 2 8.9
2015-Mar-04 00:25 129 1 gusting 1 8.9
2015-Mar-04 00:20 104 0 gusting 2 8.9
2015-Mar-04 00:15 047 0 gusting 2 8.9
2015-Mar-04 00:10 085 1 gusting 2 9.4
2015-Mar-04 00:05 9.4
2015-Mar-04 00:00 116 0 gusting 2 9.4
2015-Mar-03 23:55 087 1 gusting 1 9.4
2015-Mar-03 23:50 9.4
2015-Mar-03 23:45 9.4
2015-Mar-03 23:40 9.4
2015-Mar-03 23:35 10.0
2015-Mar-03 23:30 230 1 gusting 1 10.0
2015-Mar-03 23:25 239 0 gusting 2 9.4
2015-Mar-03 23:20 256 1 gusting 2 10.0
2015-Mar-03 23:15 10.0
2015-Mar-03 23:10 284 1 gusting 1 10.0
2015-Mar-03 23:05 10.0
2015-Mar-03 23:00 10.0
2015-Mar-03 22:55 10.6
2015-Mar-03 22:50 10.6
2015-Mar-03 22:45 10.6
2015-Mar-03 22:40 11.1
2015-Mar-03 22:35 050 3 gusting 3 11.1
2015-Mar-03 22:30 082 0 gusting 3 11.1
2015-Mar-03 22:25 087 2 gusting 3 11.1
2015-Mar-03 22:20 089 3 gusting 3 11.1
2015-Mar-03 22:15 091 2 gusting 4 11.1
2015-Mar-03 22:10 087 2 gusting 4 11.1
2015-Mar-03 22:05 077 1 gusting 3 11.7
2015-Mar-03 22:00 087 1 gusting 3 11.7
2015-Mar-03 21:55 143 3 gusting 3 11.7
2015-Mar-03 21:50 11.7
2015-Mar-03 21:45 207 1 gusting 1 11.7
2015-Mar-03 21:40 182 1 gusting 1 11.7
2015-Mar-03 21:35 12.2
2015-Mar-03 21:30 153 0 gusting 1 12.2
2015-Mar-03 21:25 154 0 gusting 1 12.2
2015-Mar-03 21:20 12.2
2015-Mar-03 21:15 12.2
2015-Mar-03 21:10 12.2
2015-Mar-03 21:05 251 1 gusting 1 12.8
2015-Mar-03 21:00 12.8
2015-Mar-03 20:55 13.3
2015-Mar-03 20:50 172 0 gusting 1 13.3
2015-Mar-03 20:45 13.3
2015-Mar-03 20:40 13.3
2015-Mar-03 20:35 13.9
2015-Mar-03 20:30 293 0 gusting 3 13.9
2015-Mar-03 20:25 273 1 gusting 4 13.9
2015-Mar-03 20:20 267 1 gusting 4 13.9
2015-Mar-03 20:15 269 3 gusting 4 13.9
2015-Mar-03 20:10 280 2 gusting 3 13.9
2015-Mar-03 20:05 287 1 gusting 3 13.9
2015-Mar-03 20:00 284 1 gusting 3 13.9
2015-Mar-03 19:55 296 1 gusting 3 13.9
2015-Mar-03 19:45 283 1 gusting 3 13.9
2015-Mar-03 19:40 283 1 gusting 3 13.9
2015-Mar-03 19:35 288 1 gusting 4 14.4
2015-Mar-03 19:30 293 1 gusting 4 14.4
2015-Mar-03 19:25 290 2 gusting 4 14.4
2015-Mar-03 19:20 279 2 gusting 3 14.4
2015-Mar-03 19:15 281 1 gusting 3 14.4
2015-Mar-03 19:10 283 2 gusting 4 14.4
2015-Mar-03 19:05 282 1 gusting 5 14.4
2015-Mar-03 19:00 285 2 gusting 5 14.4
2015-Mar-03 18:55 287 2 gusting 4 14.4
2015-Mar-03 18:50 270 1 gusting 5 14.4
2015-Mar-03 18:45 248 2 gusting 6 14.4
2015-Mar-03 18:40 244 4 gusting 6 14.4
2015-Mar-03 18:35 242 6 gusting 6 14.4
2015-Mar-03 18:30 255 4 gusting 7 15.0
2015-Mar-03 18:25 269 5 gusting 7 15.0
2015-Mar-03 18:20 254 5 gusting 7 15.0
2015-Mar-03 18:15 248 5 gusting 7 15.0
2015-Mar-03 18:10 251 6 gusting 7 15.0
2015-Mar-03 18:05 256 6 gusting 8 15.6
2015-Mar-03 18:00 259 6 gusting 8 15.6